SMURF1 NZDN-NZCH
Flight info
| Callsign | SMURF1 |
|---|---|
| Flight time | N/A |
| Altitude | 27000 |
| Route | BIDEL Y477 LADIS |
| Aircraft | SU95/M-SDE3GILORVW/S |
Departure
| Time | 2026-04-26 10:39 |
|---|---|
| Airport | Dunedin International Airport (NZDN) |
Arrival
| Time | N/A |
|---|---|
| Airport | Christchurch International Airport (NZCH) |
| Time | Latitude | Longitude | Altitude | Speed | Heading |
|---|---|---|---|---|---|
| 2026-04-26 10:31 | -45.92455 | 170.19968 | 62 ft | 0 kts | 334° |
| 2026-04-26 10:32 | -45.92469 | 170.19977 | 7 ft | 8 kts | 334° |
| 2026-04-26 10:33 | -45.92494 | 170.20015 | 7 ft | 0 kts | 239° |
| 2026-04-26 10:33 | -45.92497 | 170.20008 | 7 ft | 0 kts | 239° |
| 2026-04-26 10:33 | -45.92497 | 170.20011 | 7 ft | 0 kts | 168° |
| 2026-04-26 10:34 | -45.92525 | 170.20019 | 7 ft | 0 kts | 168° |
| 2026-04-26 10:34 | -45.92565 | 170.20035 | 8 ft | 0 kts | 140° |
| 2026-04-26 10:34 | -45.92607 | 170.20088 | 7 ft | 8 kts | 144° |
| 2026-04-26 10:35 | -45.92637 | 170.20118 | 8 ft | 8 kts | 142° |
| 2026-04-26 10:35 | -45.92750 | 170.20089 | 8 ft | 8 kts | 237° |
| 2026-04-26 10:35 | -45.92793 | 170.20007 | 9 ft | 8 kts | 234° |
| 2026-04-26 10:35 | -45.92879 | 170.19826 | 9 ft | 8 kts | 235° |
| 2026-04-26 10:36 | -45.92963 | 170.19647 | 7 ft | 8 kts | 233° |
| 2026-04-26 10:36 | -45.93093 | 170.19371 | 6 ft | 9 kts | 235° |
| 2026-04-26 10:36 | -45.93208 | 170.19090 | 7 ft | 8 kts | 226° |
| 2026-04-26 10:36 | -45.93301 | 170.18925 | 8 ft | 0 kts | 38° |
| 2026-04-26 10:37 | -45.93301 | 170.18926 | 8 ft | 4 kts | 37° |
| 2026-04-26 10:37 | -45.93301 | 170.18927 | 9 ft | 0 kts | 56° |
| 2026-04-26 10:38 | -45.93299 | 170.18930 | 9 ft | 0 kts | 56° |
| 2026-04-26 10:39 | -45.93230 | 170.19077 | 8 ft | 0 kts | 56° |
| 2026-04-26 10:39 | -45.93154 | 170.19239 | 7 ft | 86 kts | 56° |
| 2026-04-26 10:39 | -45.92838 | 170.19912 | 63 ft | 207 kts | 56° |
| 2026-04-26 10:39 | -45.92331 | 170.20994 | 788 ft | 322 kts | 55° |
| 2026-04-26 10:40 | -45.91565 | 170.22599 | 1338 ft | 458 kts | 55° |
| 2026-04-26 10:40 | -45.90537 | 170.24759 | 1186 ft | 589 kts | 55° |
| 2026-04-26 10:40 | -45.89328 | 170.27478 | 829 ft | 688 kts | 60° |
| 2026-04-26 10:40 | -45.88171 | 170.30624 | 618 ft | 733 kts | 66° |
| 2026-04-26 10:41 | -45.87223 | 170.34081 | 991 ft | 751 kts | 70° |
| 2026-04-26 10:41 | -45.86293 | 170.37604 | 1374 ft | 766 kts | 69° |
| 2026-04-26 10:41 | -45.85291 | 170.41181 | 1488 ft | 775 kts | 68° |
| 2026-04-26 10:41 | -45.84273 | 170.44747 | 2071 ft | 774 kts | 68° |
| 2026-04-26 10:42 | -45.83331 | 170.48248 | 3663 ft | 750 kts | 69° |
| 2026-04-26 10:42 | -45.82455 | 170.51696 | 6716 ft | 743 kts | 69° |
| 2026-04-26 10:42 | -45.81496 | 170.55087 | 7397 ft | 686 kts | 70° |
| 2026-04-26 10:42 | -45.81193 | 170.56288 | 6799 ft | 653 kts | 72° |
| 2026-04-26 10:43 | -45.80692 | 170.58695 | 5581 ft | 602 kts | 73° |
| 2026-04-26 10:43 | -45.80172 | 170.61355 | 2382 ft | 571 kts | 78° |
| 2026-04-26 10:43 | -45.79739 | 170.64148 | 811 ft | 583 kts | 74° |
| 2026-04-26 10:43 | -45.78905 | 170.66800 | 1104 ft | 595 kts | 37° |
| 2026-04-26 10:44 | -45.76849 | 170.67707 | 1220 ft | 659 kts | 356° |
| 2026-04-26 10:44 | -45.73161 | 170.66649 | 398 ft | 728 kts | 341° |
| 2026-04-26 10:44 | -45.71353 | 170.65612 | 319 ft | 0 kts | 331° |
| 2026-04-26 10:44 | -45.70697 | 170.65086 | 2087 ft | 0 kts | 14° |
| 2026-04-26 10:45 | -45.70297 | 170.65271 | 400 ft | 36 kts | 172° |
| 2026-04-26 10:45 | -45.92455 | 170.19968 | 423 ft | 0 kts | 334° |